createdAt,value
2023-01-13T00:02:27.860Z,25.43
2023-01-13T00:05:30.016Z,24.90
2023-01-13T00:08:32.449Z,26.15
2023-01-13T00:11:35.379Z,26.70
2023-01-13T00:14:37.471Z,25.43
2023-01-13T00:17:39.592Z,26.08
2023-01-13T00:20:41.693Z,26.95
2023-01-13T00:23:44.211Z,25.75
2023-01-13T00:26:46.324Z,24.67
2023-01-13T00:29:48.580Z,24.77
2023-01-13T00:32:50.661Z,27.38
2023-01-13T00:35:57.054Z,26.23
2023-01-13T00:38:59.139Z,25.13
2023-01-13T00:42:19.713Z,27.05
2023-01-13T00:45:21.787Z,24.65
2023-01-13T00:48:24.935Z,24.25
2023-01-13T00:51:27.571Z,23.90
2023-01-13T00:54:29.647Z,23.47
2023-01-13T00:57:31.756Z,24.00
2023-01-13T01:00:33.934Z,24.27
2023-01-13T01:03:36.150Z,24.50
2023-01-13T01:06:38.510Z,23.03
2023-01-13T01:09:40.874Z,24.00
2023-01-13T01:12:42.884Z,25.75
2023-01-13T01:15:45.106Z,24.08
2023-01-13T01:18:47.929Z,24.17
2023-01-13T01:21:49.981Z,24.35
2023-01-13T01:24:52.061Z,24.38
2023-01-13T01:27:54.130Z,23.42
2023-01-13T01:30:58.428Z,23.57
2023-01-13T01:34:01.069Z,23.37
2023-01-13T01:37:03.122Z,22.88
2023-01-13T01:40:05.384Z,22.52
2023-01-13T01:43:36.780Z,22.45
2023-01-13T01:46:43.473Z,20.00
2023-01-13T01:49:47.590Z,18.80
2023-01-13T01:52:52.038Z,20.50
2023-01-13T01:55:54.737Z,19.55
2023-01-13T01:58:56.796Z,20.07
2023-01-13T02:01:59.059Z,19.77
2023-01-13T02:05:01.405Z,20.27
2023-01-13T02:08:03.964Z,19.15
2023-01-13T02:11:06.180Z,18.95
2023-01-13T02:14:08.304Z,17.60
2023-01-13T02:17:19.371Z,18.33
2023-01-13T02:20:39.977Z,17.83
2023-01-13T02:24:19.570Z,18.15
2023-01-13T02:27:30.884Z,17.80
2023-01-13T02:31:06.013Z,16.80
2023-01-13T02:34:18.181Z,17.77
2023-01-13T02:37:27.550Z,17.50
2023-01-13T02:40:34.329Z,16.42
2023-01-13T02:43:57.131Z,17.40
2023-01-13T02:47:05.807Z,17.07
2023-01-13T02:50:17.536Z,17.48
2023-01-13T02:53:23.866Z,17.92
2023-01-13T02:56:26.735Z,16.33
2023-01-13T02:59:29.752Z,17.07
2023-01-13T03:02:31.962Z,17.13
2023-01-13T03:05:34.511Z,17.73
2023-01-13T03:08:39.648Z,16.45
2023-01-13T03:11:50.406Z,17.48
2023-01-13T03:14:58.884Z,15.20
2023-01-13T03:18:08.737Z,17.77
2023-01-13T03:21:19.787Z,17.33
2023-01-13T03:24:27.905Z,16.23
2023-01-13T03:27:48.174Z,16.43
2023-01-13T03:30:54.680Z,15.80
2023-01-13T03:34:17.919Z,16.95
2023-01-13T03:37:22.439Z,16.83
2023-01-13T03:40:30.022Z,16.90
2023-01-13T03:43:53.867Z,17.07
2023-01-13T03:46:56.006Z,17.75
2023-01-13T03:50:03.723Z,17.08
2023-01-13T03:53:10.182Z,17.10
2023-01-13T03:56:15.815Z,17.70
2023-01-13T03:59:20.623Z,16.70
2023-01-13T04:02:31.698Z,17.08
2023-01-13T04:05:35.177Z,17.00
2023-01-13T04:08:39.379Z,17.43
2023-01-13T04:11:46.914Z,18.13
2023-01-13T04:14:49.612Z,17.75
2023-01-13T04:17:51.960Z,19.27
2023-01-13T04:20:56.132Z,17.92
2023-01-13T04:23:58.290Z,18.63
2023-01-13T04:27:00.451Z,19.50
2023-01-13T04:30:02.674Z,18.83
2023-01-13T04:33:05.364Z,19.15
2023-01-13T04:36:07.572Z,18.17
2023-01-13T04:39:09.782Z,18.93
2023-01-13T04:42:11.997Z,18.20
2023-01-13T04:45:14.438Z,19.05
2023-01-13T04:48:16.647Z,19.30
2023-01-13T04:51:18.958Z,18.27
2023-01-13T04:54:21.094Z,22.83
2023-01-13T04:57:23.317Z,21.45
2023-01-13T05:00:28.430Z,18.00
2023-01-13T05:03:30.527Z,16.30
2023-01-13T05:06:33.067Z,18.23
2023-01-13T05:09:36.477Z,17.05
2023-01-13T05:12:57.428Z,16.85
2023-01-13T05:16:19.423Z,16.85
2023-01-13T05:19:21.689Z,16.30
2023-01-13T05:22:42.700Z,16.00
2023-01-13T05:25:47.119Z,15.85
2023-01-13T05:29:09.829Z,15.65
2023-01-13T05:32:11.943Z,16.57
2023-01-13T05:35:16.050Z,17.13
2023-01-13T05:38:18.636Z,18.20
2023-01-13T05:41:39.276Z,19.48
2023-01-13T05:44:41.384Z,19.00
2023-01-13T05:47:43.598Z,19.42
2023-01-13T05:50:46.458Z,18.50
2023-01-13T05:53:48.749Z,18.98
2023-01-13T05:56:50.869Z,19.30
2023-01-13T05:59:53.060Z,20.53
2023-01-13T06:02:55.242Z,20.73
2023-01-13T06:05:59.550Z,19.95
2023-01-13T06:09:01.669Z,20.20
2023-01-13T06:12:04.929Z,19.70
2023-01-13T06:15:07.309Z,19.67
2023-01-13T06:18:09.576Z,19.23
2023-01-13T06:21:11.715Z,18.83
2023-01-13T06:24:13.996Z,19.93
2023-01-13T06:27:16.868Z,18.83
2023-01-13T06:30:19.439Z,19.63
2023-01-13T06:33:25.238Z,18.73
2023-01-13T06:36:31.296Z,17.30
2023-01-13T06:39:34.221Z,15.83
2023-01-13T06:43:03.050Z,17.55
2023-01-13T06:46:05.282Z,18.80
2023-01-13T06:49:08.276Z,17.63
2023-01-13T06:52:10.605Z,15.03
2023-01-13T06:55:12.869Z,15.23
2023-01-13T06:58:15.024Z,14.93
2023-01-13T07:01:17.385Z,16.25
2023-01-13T07:04:19.839Z,15.37
2023-01-13T07:07:22.129Z,16.15
2023-01-13T07:10:24.313Z,16.75
2023-01-13T07:13:45.334Z,14.48
2023-01-13T07:16:47.457Z,12.23
2023-01-13T07:19:49.601Z,11.27
2023-01-13T07:22:55.232Z,12.98
2023-01-13T07:25:58.234Z,13.57
2023-01-13T07:29:01.076Z,13.37
2023-01-13T07:32:03.359Z,13.88
2023-01-13T07:35:06.452Z,13.45
2023-01-13T07:38:08.555Z,13.90
2023-01-13T07:41:33.304Z,15.87
2023-01-13T07:44:35.513Z,16.15
2023-01-13T07:47:37.695Z,14.38
2023-01-13T07:50:40.684Z,13.35
2023-01-13T07:53:43.438Z,13.87
2023-01-13T07:56:45.543Z,13.90
2023-01-13T07:59:47.699Z,13.65
2023-01-13T08:02:50.140Z,15.00
2023-01-13T08:05:52.524Z,14.57
2023-01-13T08:08:54.818Z,14.53
2023-01-13T08:12:16.106Z,15.50
2023-01-13T08:15:18.338Z,13.70
2023-01-13T08:18:22.412Z,14.05
2023-01-13T08:21:24.713Z,13.60
2023-01-13T08:24:27.017Z,13.53
2023-01-13T08:27:29.321Z,12.70
2023-01-13T08:30:31.714Z,13.05
2023-01-13T08:33:34.220Z,13.35
2023-01-13T08:36:36.304Z,13.00
2023-01-13T08:39:38.615Z,11.90
2023-01-13T08:42:41.167Z,12.90
2023-01-13T08:45:43.384Z,11.32
2023-01-13T08:48:45.637Z,11.63
2023-01-13T08:51:48.280Z,12.15
2023-01-13T08:54:50.537Z,11.93
2023-01-13T08:57:54.460Z,11.77
2023-01-13T09:01:04.103Z,11.63
2023-01-13T09:04:07.398Z,11.37
2023-01-13T09:07:09.665Z,11.18
2023-01-13T09:10:11.873Z,10.48
2023-01-13T09:13:14.626Z,11.48
2023-01-13T09:16:17.016Z,10.87
2023-01-13T09:19:19.335Z,10.82
2023-01-13T09:22:21.950Z,10.90
2023-01-13T09:25:24.144Z,10.77
2023-01-13T09:28:26.335Z,11.50
2023-01-13T09:31:28.841Z,10.77
2023-01-13T09:34:50.622Z,10.40
2023-01-13T09:37:53.554Z,10.40
2023-01-13T09:40:56.481Z,9.93
2023-01-13T09:43:59.333Z,9.37
2023-01-13T09:47:04.180Z,9.90
2023-01-13T09:50:25.432Z,9.40
2023-01-13T09:53:30.413Z,9.32
2023-01-13T09:56:32.682Z,10.13
2023-01-13T09:59:36.923Z,11.30
2023-01-13T10:02:45.357Z,11.48
2023-01-13T10:05:49.477Z,11.73
2023-01-13T10:08:51.754Z,11.68
2023-01-13T10:12:14.854Z,11.60
2023-01-13T10:15:19.665Z,12.38
2023-01-13T10:18:28.048Z,11.57
2023-01-13T10:21:30.244Z,11.20
2023-01-13T10:24:50.112Z,11.07
2023-01-13T10:27:53.958Z,10.43
2023-01-13T10:30:56.234Z,10.98
2023-01-13T10:33:59.390Z,10.93
2023-01-13T10:37:05.681Z,11.15
2023-01-13T10:40:17.185Z,10.97
2023-01-13T10:43:19.952Z,10.98
2023-01-13T10:46:22.349Z,10.77
2023-01-13T10:49:24.707Z,11.27
2023-01-13T10:52:28.792Z,11.03
2023-01-13T10:55:37.970Z,11.13
2023-01-13T10:58:40.198Z,11.45
2023-01-13T11:01:43.907Z,11.85
2023-01-13T11:04:55.315Z,13.13
2023-01-13T11:07:58.087Z,19.07
2023-01-13T11:11:00.867Z,19.20
2023-01-13T11:14:24.024Z,18.13
2023-01-13T11:17:45.597Z,15.90
2023-01-13T11:20:49.582Z,13.67
2023-01-13T11:24:01.354Z,16.08
2023-01-13T11:27:25.911Z,18.20
2023-01-13T11:30:35.239Z,18.08
2023-01-13T11:33:37.490Z,22.23
2023-01-13T11:36:42.531Z,22.47
2023-01-13T11:39:49.340Z,19.83
2023-01-13T11:42:55.936Z,24.17
2023-01-13T11:46:00.028Z,20.20
2023-01-13T11:49:03.138Z,20.67
2023-01-13T11:52:09.051Z,21.27
2023-01-13T11:55:30.080Z,22.73
2023-01-13T11:58:50.702Z,23.30
2023-01-13T12:02:12.778Z,25.58
2023-01-13T12:05:23.848Z,17.00
2023-01-13T12:08:32.735Z,14.98
2023-01-13T12:12:11.467Z,15.00
2023-01-13T12:15:40.895Z,12.98
2023-01-13T12:18:51.786Z,12.93
2023-01-13T12:21:57.164Z,12.45
2023-01-13T12:24:59.359Z,12.45
2023-01-13T12:28:11.428Z,12.48
2023-01-13T12:31:14.861Z,14.17
2023-01-13T12:34:38.074Z,13.63
2023-01-13T12:37:44.997Z,13.65
2023-01-13T12:40:51.547Z,13.13
2023-01-13T12:44:12.669Z,12.68
2023-01-13T12:47:33.102Z,13.30
2023-01-13T12:50:36.876Z,13.80
2023-01-13T12:53:39.372Z,14.00
2023-01-13T12:56:45.299Z,14.13
2023-01-13T13:00:14.361Z,15.50
2023-01-13T13:03:32.364Z,17.70
2023-01-13T13:06:36.445Z,17.40
2023-01-13T13:09:49.322Z,18.13
2023-01-13T13:13:11.437Z,15.75
2023-01-13T13:16:36.296Z,16.73
2023-01-13T13:19:38.561Z,15.03
2023-01-13T13:22:46.054Z,15.63
2023-01-13T13:26:03.237Z,15.90
2023-01-13T13:29:05.397Z,14.98
2023-01-13T13:32:10.503Z,15.73
2023-01-13T13:35:31.858Z,15.50
2023-01-13T13:38:55.817Z,14.98
2023-01-13T13:42:40.813Z,14.98
2023-01-13T13:46:08.584Z,14.38
2023-01-13T13:49:12.208Z,13.93
2023-01-13T13:52:15.483Z,14.30
2023-01-13T13:55:19.367Z,15.15
2023-01-13T13:58:22.108Z,16.80
2023-01-13T14:01:26.503Z,14.20
2023-01-13T14:04:33.888Z,14.87
2023-01-13T14:07:43.383Z,15.40
2023-01-13T14:10:46.275Z,13.95
2023-01-13T14:14:00.401Z,15.98
2023-01-13T14:17:04.234Z,15.10
2023-01-13T14:20:09.556Z,14.67
2023-01-13T14:23:17.694Z,14.40
2023-01-13T14:26:23.634Z,14.88
2023-01-13T14:29:25.855Z,18.10
2023-01-13T14:32:33.341Z,17.83
2023-01-13T14:35:35.613Z,17.63
2023-01-13T14:38:40.188Z,21.07
2023-01-13T14:41:42.378Z,21.33
2023-01-13T14:44:48.817Z,18.75
2023-01-13T14:47:52.672Z,20.60
2023-01-13T14:50:55.298Z,22.17
2023-01-13T14:53:58.528Z,19.30
2023-01-13T14:57:20.868Z,19.33
2023-01-13T15:00:24.953Z,18.85
2023-01-13T15:03:27.087Z,16.42
2023-01-13T15:06:29.191Z,16.20
2023-01-13T15:09:39.764Z,17.63
2023-01-13T15:12:43.257Z,16.88
2023-01-13T15:15:49.601Z,19.08
2023-01-13T15:18:51.875Z,18.63
2023-01-13T15:21:54.053Z,18.83
2023-01-13T15:24:56.956Z,21.03
2023-01-13T15:27:59.070Z,21.02
2023-01-13T15:31:03.688Z,17.85
2023-01-13T15:34:05.965Z,16.23
2023-01-13T15:37:08.969Z,16.17
2023-01-13T15:40:16.353Z,15.17
2023-01-13T15:43:40.620Z,15.13
2023-01-13T15:46:42.978Z,14.20
2023-01-13T15:49:46.076Z,15.65
2023-01-13T15:52:48.313Z,16.07
2023-01-13T15:55:55.458Z,15.33
2023-01-13T15:58:57.609Z,17.45
2023-01-13T16:01:59.690Z,21.30
2023-01-13T16:05:01.893Z,21.30
2023-01-13T16:08:04.105Z,23.80
2023-01-13T16:11:06.235Z,28.43
2023-01-13T16:14:08.334Z,36.13
2023-01-13T16:17:17.977Z,35.03
2023-01-13T16:20:24.189Z,36.13
2023-01-13T16:23:26.392Z,37.80
2023-01-13T16:26:30.092Z,37.08
2023-01-13T16:29:32.238Z,36.95
2023-01-13T16:32:34.418Z,36.92
2023-01-13T16:35:36.744Z,34.92
2023-01-13T16:38:59.189Z,30.30
2023-01-13T16:42:01.670Z,28.98
2023-01-13T16:45:09.547Z,29.45
2023-01-13T16:48:18.964Z,29.00
2023-01-13T16:51:21.884Z,25.60
2023-01-13T16:54:23.980Z,25.50
2023-01-13T16:57:27.498Z,26.42
2023-01-13T17:00:29.946Z,28.85
2023-01-13T17:03:36.041Z,30.63
2023-01-13T17:06:39.838Z,26.63
2023-01-13T17:09:42.311Z,26.48
2023-01-13T17:12:44.508Z,26.35
2023-01-13T17:15:46.880Z,24.20
2023-01-13T17:18:49.100Z,24.60
2023-01-13T17:21:51.230Z,23.47
2023-01-13T17:24:53.353Z,21.23
2023-01-13T17:27:55.901Z,33.47
2023-01-13T17:30:59.478Z,31.52
2023-01-13T17:34:02.275Z,45.73
2023-01-13T17:37:04.640Z,42.63
2023-01-13T17:40:07.439Z,39.20
2023-01-13T17:43:10.695Z,35.72
2023-01-13T17:46:13.983Z,39.95
2023-01-13T17:49:17.335Z,41.13
2023-01-13T17:52:20.272Z,41.78
2023-01-13T17:55:22.474Z,35.95
2023-01-13T17:58:24.903Z,27.63
2023-01-13T18:01:30.840Z,26.70
2023-01-13T18:04:33.044Z,25.10
2023-01-13T18:07:35.168Z,27.60
2023-01-13T18:10:37.489Z,32.78
2023-01-13T18:13:41.632Z,32.42
2023-01-13T18:16:43.834Z,29.10
2023-01-13T18:20:04.685Z,29.93
2023-01-13T18:23:30.012Z,31.40
2023-01-13T18:26:51.044Z,41.22
2023-01-13T18:29:54.481Z,39.35
2023-01-13T18:32:57.163Z,40.03
2023-01-13T18:35:59.340Z,34.17
2023-01-13T18:39:01.497Z,32.42
2023-01-13T18:42:26.376Z,31.02
2023-01-13T18:45:30.266Z,31.88
2023-01-13T18:48:32.780Z,31.47
2023-01-13T18:51:34.972Z,29.87
2023-01-13T18:54:37.194Z,32.55
2023-01-13T18:57:42.299Z,35.92
2023-01-13T19:00:44.725Z,37.53
2023-01-13T19:03:46.931Z,48.13
2023-01-13T19:06:51.620Z,56.45
2023-01-13T19:09:59.253Z,46.75
2023-01-13T19:13:01.731Z,48.50
2023-01-13T19:16:07.631Z,45.15
2023-01-13T19:19:10.091Z,46.67
2023-01-13T19:22:13.245Z,42.63
2023-01-13T19:25:15.706Z,42.30
2023-01-13T19:28:17.916Z,41.67
2023-01-13T19:31:20.628Z,46.80
2023-01-13T19:34:24.244Z,45.28
2023-01-13T19:37:30.942Z,45.40
2023-01-13T19:40:34.766Z,43.45
2023-01-13T19:43:55.980Z,42.70
2023-01-13T19:46:58.331Z,40.27
2023-01-13T19:50:03.665Z,43.22
2023-01-13T19:53:06.429Z,42.25
2023-01-13T19:56:12.806Z,46.00
2023-01-13T19:59:19.113Z,38.43
2023-01-13T20:02:28.328Z,33.97
2023-01-13T20:05:30.912Z,32.33
2023-01-13T20:08:33.365Z,32.00
2023-01-13T20:11:36.404Z,31.17
2023-01-13T20:14:38.695Z,31.67
2023-01-13T20:17:41.665Z,31.47
2023-01-13T20:20:44.321Z,30.50
2023-01-13T20:23:50.716Z,31.60
2023-01-13T20:26:54.586Z,30.15
2023-01-13T20:29:57.119Z,31.20
2023-01-13T20:32:59.226Z,29.30
2023-01-13T20:36:01.602Z,29.98
2023-01-13T20:39:05.426Z,28.27
2023-01-13T20:42:26.223Z,27.05
2023-01-13T20:45:28.337Z,27.47
2023-01-13T20:48:30.435Z,27.50
2023-01-13T20:51:33.073Z,27.35
2023-01-13T20:54:35.963Z,29.25
2023-01-13T20:57:38.359Z,28.23
2023-01-13T21:00:42.251Z,24.40
2023-01-13T21:03:44.413Z,23.00
2023-01-13T21:06:48.197Z,22.73
2023-01-13T21:09:50.590Z,22.40
2023-01-13T21:13:11.537Z,27.08
2023-01-13T21:16:13.764Z,25.50
2023-01-13T21:19:15.986Z,22.85
2023-01-13T21:22:18.228Z,20.42
2023-01-13T21:25:20.356Z,19.08
2023-01-13T21:28:22.551Z,20.40
2023-01-13T21:31:26.961Z,20.80
2023-01-13T21:34:29.415Z,21.70
2023-01-13T21:37:31.498Z,22.88
2023-01-13T21:40:34.421Z,19.75
2023-01-13T21:43:56.043Z,19.87
2023-01-13T21:47:16.918Z,18.20
2023-01-13T21:50:20.643Z,16.77
2023-01-13T21:53:22.769Z,17.67
2023-01-13T21:56:24.993Z,17.70
2023-01-13T21:59:27.072Z,18.70
2023-01-13T22:02:31.754Z,18.73
2023-01-13T22:05:34.364Z,17.73
2023-01-13T22:08:36.542Z,16.23
2023-01-13T22:11:38.669Z,16.17
2023-01-13T22:14:41.381Z,15.77
2023-01-13T22:17:43.591Z,15.50
2023-01-13T22:20:45.987Z,15.45
2023-01-13T22:23:48.521Z,16.50
2023-01-13T22:26:50.953Z,15.15
2023-01-13T22:29:53.323Z,15.27
2023-01-13T22:32:55.421Z,16.00
2023-01-13T22:35:57.564Z,16.05
2023-01-13T22:39:00.707Z,16.08
2023-01-13T22:42:03.176Z,14.73
2023-01-13T22:45:06.539Z,15.10
2023-01-13T22:48:08.636Z,15.80
2023-01-13T22:51:12.078Z,15.68
2023-01-13T22:54:14.767Z,16.35
2023-01-13T22:57:16.861Z,15.40
2023-01-13T23:00:19.725Z,16.90
2023-01-13T23:03:22.454Z,16.33
2023-01-13T23:06:25.593Z,17.10
2023-01-13T23:09:29.990Z,16.13
2023-01-13T23:12:32.108Z,15.32
2023-01-13T23:15:35.160Z,15.00
2023-01-13T23:18:37.444Z,15.75
2023-01-13T23:21:39.668Z,16.63
2023-01-13T23:24:41.767Z,15.77
2023-01-13T23:27:44.002Z,14.67
2023-01-13T23:30:47.356Z,14.97
2023-01-13T23:33:49.718Z,15.52
2023-01-13T23:36:51.926Z,15.35
2023-01-13T23:39:54.008Z,16.35
2023-01-13T23:42:56.210Z,17.03
2023-01-13T23:46:05.241Z,16.05
2023-01-13T23:49:07.872Z,16.13
2023-01-13T23:52:10.025Z,14.60
2023-01-13T23:55:12.180Z,15.55
2023-01-13T23:58:14.508Z,14.50
